METAR Data
IDs: Format: Raw Decoded Include TAF

Data at: 2121 UTC 20 Nov 2018

KOSA 202115Z AUTO 36005KT 10SM CLR 13/M02 A3032 RMK AO1 T01301024
KOSA 202055Z AUTO 36008KT 10SM CLR 13/M02 A3032 RMK AO1 T01321020
KOSA 202035Z AUTO 02005KT 10SM CLR 13/M02 A3032 RMK AO1 T01311022
KOSA 202015Z AUTO 01004KT 10SM CLR 13/M02 A3033 RMK AO1 T01311025
KOSA 201955Z AUTO 06006KT 10SM CLR 13/M02 A3033 RMK AO1 T01311018
KOSA 201935Z AUTO 36008KT 10SM CLR 13/M01 A3033 RMK AO1 T01311014
KOSA 201915Z AUTO 02006G09KT 10SM CLR 13/M02 A3034 RMK AO1 T01261023
KOSA 201855Z AUTO 05004KT 10SM CLR 13/M02 A3035 RMK AO1 T01281020
KOSA 201835Z AUTO 02007KT 10SM CLR 13/M02 A3036 RMK AO1 T01251024
KOSA 201815Z AUTO 02006KT 10SM CLR 12/M02 A3037 RMK AO1 T01241022
KOSA 201755Z AUTO 36010KT 10SM CLR 12/M02 A3038 RMK AO1 T01231019 10123 21008
KOSA 201735Z AUTO 01005G14KT 10SM CLR 12/M01 A3039 RMK AO1 T01161011
KOSA 201715Z AUTO 03008KT 10SM CLR 11/M01 A3040 RMK AO1 T01131009
KOSA 201655Z AUTO 04010G16KT 10SM CLR 11/M02 A3040 RMK AO1 T01071016
KOSA 201635Z AUTO 02010KT 10SM CLR 11/M01 A3041 RMK AO1 T01051013
KOSA 201615Z AUTO 36008G14KT 10SM CLR 10/M01 A3041 RMK AO1 T00971012
KOSA 201555Z AUTO 03009KT 10SM CLR 09/00 A3041 RMK AO1 T00911002
KOSA 201535Z AUTO 03007KT 10SM CLR 09/01 A3040 RMK AO1 T00860005
KOSA 201515Z AUTO 35006KT 10SM CLR 08/01 A3040 RMK AO1 T00770014
KOSA 201455Z AUTO 00000KT 10SM CLR 07/02 A3039 RMK AO1 T00650019
KOSA 201435Z AUTO 36003KT 10SM CLR 05/02 A3039 RMK AO1 T00520018
KOSA 201415Z AUTO 00000KT 10SM CLR 03/01 A3038 RMK AO1 T00310014
KOSA 201355Z AUTO 00000KT 10SM CLR 01/00 A3037 RMK AO1 T00140003
KOSA 201335Z AUTO 00000KT 10SM CLR 00/00 A3036 RMK AO1 T00031005
KOSA 201315Z AUTO 00000KT 10SM CLR 00/M01 A3035 RMK AO1 T10011010
KOSA 201255Z AUTO 00000KT 10SM CLR M01/M02 A3034 RMK AO1 T10061016
KOSA 201235Z AUTO 00000KT 10SM CLR 00/M01 A3033 RMK AO1 T00001011
KOSA 201215Z AUTO 00000KT 10SM CLR 00/00 A3033 RMK AO1 T00041002
KOSA 201155Z AUTO 00000KT 10SM CLR 00/M01 A3032 RMK AO1 T00031006 10038 21001
KOSA 201135Z AUTO 00000KT 10SM CLR 01/M01 A3031 RMK AO1 T00061006
KOSA 201115Z AUTO 00000KT 10SM CLR 01/00 A3031 RMK AO1 T00081001
KOSA 201055Z AUTO 00000KT 10SM CLR 00/M01 A3031 RMK AO1 T00011006
KOSA 201035Z AUTO 00000KT 10SM CLR 00/00 A3030 RMK AO1 T00031002
KOSA 201015Z AUTO 00000KT 7SM CLR 00/00 A3030 RMK AO1 T00011005
KOSA 200955Z AUTO 00000KT 10SM CLR 00/00 A3030 RMK AO1 T00041002
KOSA 200935Z AUTO 00000KT 7SM CLR 01/00 A3029 RMK AO1 T00061001
KOSA 200915Z AUTO 00000KT 10SM CLR 01/00 A3029 RMK AO1 T00071002
KOSA 200855Z AUTO 00000KT 10SM CLR 02/00 A3029 RMK AO1 T00170003
KOSA 200830Z AUTO 00000KT 10SM CLR 01/00 A3029 RMK AO1 T00110000
KOSA 200815Z AUTO 00000KT 10SM CLR 02/01 A3028 RMK AO1 T00170005
KOSA 200750Z AUTO 00000KT 10SM CLR 02/01 A3028 RMK AO1 T00190005
KOSA 200735Z AUTO 00000KT 10SM CLR 02/01 A3028 RMK AO1 T00230005
KOSA 200710Z AUTO 00000KT 10SM CLR 02/01 A3028 RMK AO1 T00210006
KOSA 200655Z AUTO 00000KT 10SM CLR 03/00 A3028 RMK AO1 T00330003
KOSA 200635Z AUTO 35004KT 10SM CLR 03/01 A3028 RMK AO1 T00290007
KOSA 200610Z AUTO 00000KT 10SM CLR 03/01 A3028 RMK AO1 T00270010
KOSA 200555Z AUTO 00000KT 10SM CLR 03/01 A3028 RMK AO1 T00250007 10086 20017 401140017
KOSA 200535Z AUTO 00000KT 10SM CLR 04/01 A3028 RMK AO1 T00350009
KOSA 200515Z AUTO 00000KT 10SM CLR 03/01 A3028 RMK AO1 T00250012
KOSA 200455Z AUTO 00000KT 10SM CLR 03/00 A3027 RMK AO1 T00250002
KOSA 200435Z AUTO 32004KT 10SM CLR 05/01 A3027 RMK AO1 T00480009
KOSA 200415Z AUTO 33003KT 10SM CLR 05/01 A3027 RMK AO1 T00500012
KOSA 200355Z AUTO 33003KT 10SM CLR 04/01 A3026 RMK AO1 T00410011
KOSA 200335Z AUTO 33004KT 10SM CLR 05/02 A3026 RMK AO1 T00450015
KOSA 200315Z AUTO 32003KT 10SM CLR 04/02 A3026 RMK AO1 T00360020
KOSA 200255Z AUTO 33003KT 10SM CLR 05/01 A3025 RMK AO1 T00480014
KOSA 200235Z AUTO 33003KT 10SM CLR 06/02 A3025 RMK AO1 T00550020
KOSA 200215Z AUTO 00000KT 10SM CLR 05/03 A3024 RMK AO1 T00510029
KOSA 200155Z AUTO 00000KT 10SM CLR 05/03 A3023 RMK AO1 T00510028
KOSA 200135Z AUTO 00000KT 10SM CLR 06/02 A3023 RMK AO1 T00580024
KOSA 200115Z AUTO 00000KT 10SM CLR 05/03 A3023 RMK AO1 T00520028
KOSA 200055Z AUTO 00000KT 10SM CLR 06/02 A3022 RMK AO1 T00620022
KOSA 200035Z AUTO 00000KT 10SM CLR 08/02 A3022 RMK AO1 T00760022
KOSA 200015Z AUTO 00000KT 10SM CLR 09/02 A3021 RMK AO1 T00850021
KOSA 192355Z AUTO 00000KT 10SM CLR 09/02 A3020 RMK AO1 T00850022 10114 20083
KOSA 192335Z AUTO 00000KT 10SM CLR 10/02 A3019 RMK AO1 T00950019
KOSA 192315Z AUTO 31004KT 10SM CLR 10/02 A3019 RMK AO1 T00990016
KOSA 192255Z AUTO 31005KT 10SM CLR 11/01 A3018 RMK AO1 T01050014
KOSA 192235Z AUTO 31006KT 10SM CLR 11/01 A3018 RMK AO1 T01100014
KOSA 192215Z AUTO 30006KT 10SM CLR 11/01 A3017 RMK AO1 T01110012
KOSA 192155Z AUTO 32003KT 10SM CLR 11/01 A3017 RMK AO1 T01130011
KOSA 192135Z AUTO 32005KT 10SM CLR 11/01 A3017 RMK AO1 T01140014
KOSA 192115Z AUTO 30006KT 10SM CLR 11/01 A3017 RMK AO1 T01140011
KOSA 192055Z AUTO 31008KT 10SM CLR 11/01 A3017 RMK AO1 T01120011
KOSA 192035Z AUTO 27003KT 10SM CLR 11/01 A3018 RMK AO1 T01100012
KOSA 192010Z AUTO 28006KT 10SM CLR 11/01 A3018 RMK AO1 T01090013
KOSA 191955Z AUTO 00000KT 10SM CLR 11/01 A3018 RMK AO1 T01080013
KOSA 191930Z AUTO 27006KT 10SM CLR 11/01 A3020 RMK AO1 T01050013
KOSA 191915Z AUTO 28005KT 10SM CLR 10/01 A3020 RMK AO1 T01000013
KOSA 191855Z AUTO 00000KT 10SM CLR 10/01 A3021 RMK AO1 T00950010
KOSA 191835Z AUTO 33004KT 10SM CLR 09/01 A3022 RMK AO1 T00910010
KOSA 191815Z AUTO 04003KT 10SM CLR 09/01 A3023 RMK AO1 T00870009
KOSA 191755Z AUTO 31007KT 10SM CLR 08/01 A3025 RMK AO1 T00830008 10084 20025
KOSA 191735Z AUTO 35003KT 10SM CLR 08/01 A3026 RMK AO1 T00780007
KOSA 191715Z AUTO 31004KT 10SM CLR 07/01 A3027 RMK AO1 T00710005
KOSA 191655Z AUTO 34004KT 10SM CLR 07/01 A3028 RMK AO1 T00700008
KOSA 191635Z AUTO 36004KT 10SM CLR 07/01 A3028 RMK AO1 T00650005
KOSA 191615Z AUTO 34003KT 10SM CLR 05/00 A3027 RMK AO1 T00490002
KOSA 191555Z AUTO 31003KT 10SM CLR 05/00 A3028 RMK AO1 T00470000
KOSA 191535Z AUTO 31004KT 10SM CLR 05/00 A3028 RMK AO1 T00480001
KOSA 191515Z AUTO 27003KT 10SM CLR 04/00 A3029 RMK AO1 T00440000
KOSA 191455Z AUTO 31006KT 10SM SCT012 SCT065 04/00 A3028 RMK AO1 T00380002
KOSA 191435Z AUTO 30006KT 10SM SCT012 03/00 A3027 RMK AO1 T00340000
KOSA 191415Z AUTO 34007KT 10SM SCT012 03/00 A3026 RMK AO1 T00310000
KOSA 191355Z AUTO 31006KT 10SM SCT012 SCT060 SCT070 03/00 A3026 RMK AO1 T00281001
KOSA 191335Z AUTO 30005KT 10SM SCT012 SCT046 BKN060 03/00 A3026 RMK AO1 T00270000
KOSA 191315Z AUTO 30005KT 10SM BKN012 BKN046 BKN060 03/00 A3026 RMK AO1 T00270000
KOSA 191255Z AUTO 31006KT 10SM BKN012 OVC042 03/00 A3025 RMK AO1 T00260000
KOSA 191235Z AUTO 32006KT 10SM OVC012 03/00 A3025 RMK AO1 T00260000
KOSA 191215Z AUTO 31006KT 10SM BKN012 03/00 A3024 RMK AO1 T00251002
KOSA 191155Z AUTO 31009KT 10SM SCT012 03/00 A3023 RMK AO1 T00251001 10037 20025
KOSA 191135Z AUTO 33008KT 10SM SCT012 BKN060 03/00 A3021 RMK AO1 T00250000
KOSA 191115Z AUTO 33009KT 10SM SCT012 BKN060 03/00 A3022 RMK AO1 T00300000
KOSA 191055Z AUTO 32006KT 10SM SCT060 SCT075 03/00 A3022 RMK AO1 T00300000
KOSA 191035Z AUTO 32008KT 10SM SCT055 SCT075 03/00 A3022 RMK AO1 T00280000
KOSA 191015Z AUTO 31007KT 10SM SCT012 SCT055 03/00 A3023 RMK AO1 T00280000
KOSA 190955Z AUTO 31004KT 10SM SCT055 03/00 A3023 RMK AO1 T00280000
KOSA 190935Z AUTO 31005KT 10SM SCT065 03/00 A3022 RMK AO1 T00250000